Time;durP1;ratioP1;P1;durP2;ratioP2;P2;SDS_P1;SDS_P2;PMS_P1;PMS_P2;Temp;Humidity;BMP_temperature;BMP_pressure;BME280_temperature;BME280_humidity;BME280_pressure;Samples;Min_cycle;Max_cycle;Signal;HPM_P1;HPM_P2
2022/01/16 00:04:06;;;;;;;10.50;5.80;;;;;;;;;;5138116;27;20039;-75
2022/01/16 00:04:56;;;;;;;8.23;5.15;;;;;;;;;;5137546;27;20038;-75
2022/01/16 00:07:22;;;;;;;8.10;5.40;;;;;;;;;;5138206;27;20045;-75
2022/01/16 00:09:48;;;;;;;12.10;7.95;;;;;;;;;;5138920;27;20039;-75
2022/01/16 00:12:18;;;;;;;10.43;7.07;;;;;;;;;;5137722;27;20043;-75
2022/01/16 00:14:44;;;;;;;8.47;6.53;;;;;;;;;;5138215;27;20038;-72
2022/01/16 00:17:10;;;;;;;7.65;4.93;;;;;;;;;;5137691;27;20269;-74
2022/01/16 00:19:37;;;;;;;8.40;5.43;;;;;;;;;;5137858;27;20031;-74
2022/01/16 00:22:11;;;;;;;6.50;4.35;;;;;;;;;;5138014;27;20056;-74
2022/01/16 00:24:37;;;;;;;7.03;4.20;;;;;;;;;;5116370;28;20062;-74
2022/01/16 00:27:03;;;;;;;6.63;4.50;;;;;;;;;;5117245;28;20035;-74
2022/01/16 00:29:31;;;;;;;7.85;4.30;;;;;;;;;;5117283;28;20031;-74
2022/01/16 00:31:57;;;;;;;5.70;3.58;;;;;;;;;;5117057;28;20108;-74
2022/01/16 00:34:23;;;;;;;5.30;3.38;;;;;;;;;;5123266;27;20031;-74
2022/01/16 00:36:50;;;;;;;6.65;4.00;;;;;;;;;;5122361;27;20035;-74
2022/01/16 00:39:16;;;;;;;5.60;3.58;;;;;;;;;;5117033;28;20118;-74
2022/01/16 00:41:43;;;;;;;4.75;3.15;;;;;;;;;;5098484;28;20024;-74
2022/01/16 00:44:10;;;;;;;4.97;3.13;;;;;;;;;;5116686;28;20062;-74
2022/01/16 00:46:36;;;;;;;6.05;3.70;;;;;;;;;;5117585;28;20042;-74
2022/01/16 00:49:02;;;;;;;5.10;3.70;;;;;;;;;;5116641;28;20034;-74
2022/01/16 00:51:29;;;;;;;7.38;3.47;;;;;;;;;;5116672;28;20036;-74
2022/01/16 00:53:55;;;;;;;3.97;3.15;;;;;;;;;;5116694;28;20093;-74
2022/01/16 00:56:21;;;;;;;4.50;3.35;;;;;;;;;;5117102;28;20039;-74
2022/01/16 00:58:48;;;;;;;16.98;8.77;;;;;;;;;;5116249;28;20036;-74
2022/01/16 01:01:14;;;;;;;9.75;5.60;;;;;;;;;;5116515;28;20031;-74
2022/01/16 01:03:41;;;;;;;7.70;5.18;;;;;;;;;;5116132;28;20043;-74
2022/01/16 01:06:08;;;;;;;6.70;4.47;;;;;;;;;;5116686;28;20151;-74
2022/01/16 01:08:34;;;;;;;5.10;3.92;;;;;;;;;;5116286;28;20118;-74
2022/01/16 01:11:05;;;;;;;7.13;3.90;;;;;;;;;;5115475;28;20042;-74
2022/01/16 01:13:43;;;;;;;6.60;4.10;;;;;;;;;;5116001;28;20494;-74
2022/01/16 01:16:14;;;;;;;7.07;3.95;;;;;;;;;;5116225;28;20071;-74
2022/01/16 01:18:41;;;;;;;6.05;3.70;;;;;;;;;;5115980;28;20031;-74
2022/01/16 01:21:16;;;;;;;7.15;4.97;;;;;;;;;;5115966;28;20352;-74
2022/01/16 01:23:42;;;;;;;6.28;3.33;;;;;;;;;;5115966;28;20079;-74
2022/01/16 01:26:08;;;;;;;26.73;15.95;;;;;;;;;;5115702;28;20036;-74
2022/01/16 01:28:34;;;;;;;7.22;4.82;;;;;;;;;;5115624;28;20039;-74
2022/01/16 01:31:00;;;;;;;4.63;3.55;;;;;;;;;;5116078;28;20110;-74
2022/01/16 01:33:27;;;;;;;5.07;3.42;;;;;;;;;;5115685;28;20104;-74
2022/01/16 01:35:53;;;;;;;11.35;7.03;;;;;;;;;;5096759;28;20420;-74
2022/01/16 01:38:20;;;;;;;7.93;4.18;;;;;;;;;;5115475;28;20059;-74
2022/01/16 01:40:50;;;;;;;6.70;4.65;;;;;;;;;;5115743;28;20119;-74
2022/01/16 01:51:20;;;;;;;11.02;6.97;;;;;;;;;;5114985;28;20096;-74
2022/01/16 01:53:47;;;;;;;8.05;4.68;;;;;;;;;;5115481;28;20039;-74
2022/01/16 01:56:17;;;;;;;8.18;4.75;;;;;;;;;;5115130;28;20045;-74
2022/01/16 01:58:43;;;;;;;6.63;3.83;;;;;;;;;;5115140;28;20031;-74
2022/01/16 02:01:09;;;;;;;4.97;3.33;;;;;;;;;;5115015;28;20031;-74
2022/01/16 02:06:01;;;;;;;4.38;2.90;;;;;;;;;;5115319;28;20034;-74
2022/01/16 02:08:28;;;;;;;5.15;3.65;;;;;;;;;;5115045;28;20376;-74
2022/01/16 02:10:56;;;;;;;5.00;2.90;;;;;;;;;;5115173;28;20067;-74
2022/01/16 02:13:27;;;;;;;5.25;3.92;;;;;;;;;;5115387;28;20062;-74
2022/01/16 02:30:01;;;;;;;5.68;3.55;;;;;;;;;;5114466;28;20030;-74
2022/01/16 02:34:57;;;;;;;5.07;3.47;;;;;;;;;;5114340;28;20034;-74
2022/01/16 02:37:24;;;;;;;4.55;2.90;;;;;;;;;;5115242;28;20047;-75
2022/01/16 02:39:52;;;;;;;7.05;4.28;;;;;;;;;;5114282;28;20032;-74
2022/01/16 02:42:25;;;;;;;6.15;3.38;;;;;;;;;;5114726;28;20039;-74
2022/01/16 02:45:01;;;;;;;6.15;3.55;;;;;;;;;;5114851;28;20089;-74
2022/01/16 02:47:27;;;;;;;8.88;4.53;;;;;;;;;;5115630;28;20035;-74
2022/01/16 02:49:54;;;;;;;5.88;3.67;;;;;;;;;;5119010;28;20521;-74
2022/01/16 02:52:21;;;;;;;5.20;3.53;;;;;;;;;;5118836;28;20130;-74
2022/01/16 02:54:50;;;;;;;5.72;3.22;;;;;;;;;;5118951;28;20122;-74
2022/01/16 02:57:17;;;;;;;5.25;3.53;;;;;;;;;;5124283;27;20039;-74
2022/01/16 02:59:48;;;;;;;6.55;3.70;;;;;;;;;;5124899;27;20047;-74
2022/01/16 03:02:15;;;;;;;5.22;2.90;;;;;;;;;;5118735;28;20127;-74
2022/01/16 03:04:41;;;;;;;5.65;3.40;;;;;;;;;;5100292;28;20028;-74
2022/01/16 03:07:08;;;;;;;6.55;3.70;;;;;;;;;;5118755;28;20591;-74
2022/01/16 03:12:19;;;;;;;5.78;3.58;;;;;;;;;;5118009;28;20059;-74
2022/01/16 03:14:45;;;;;;;5.30;3.30;;;;;;;;;;5118566;28;20035;-74
2022/01/16 03:17:12;;;;;;;6.13;3.70;;;;;;;;;;5118451;28;20035;-74
2022/01/16 03:22:23;;;;;;;4.85;2.90;;;;;;;;;;5117821;28;20400;-74
2022/01/16 03:24:49;;;;;;;5.18;2.63;;;;;;;;;;5118917;28;20063;-74
2022/01/16 03:27:17;;;;;;;7.35;3.15;;;;;;;;;;5118022;28;20039;-74
2022/01/16 03:29:45;;;;;;;4.78;3.10;;;;;;;;;;5118562;28;20110;-74
2022/01/16 03:32:13;;;;;;;6.68;3.53;;;;;;;;;;5118604;28;20035;-74
2022/01/16 03:34:39;;;;;;;7.72;3.60;;;;;;;;;;5118018;28;20046;-74
2022/01/16 03:37:05;;;;;;;5.53;3.13;;;;;;;;;;5118490;28;20031;-75
2022/01/16 03:39:31;;;;;;;10.95;4.38;;;;;;;;;;5118695;28;20115;-74
2022/01/16 03:42:00;;;;;;;5.60;3.33;;;;;;;;;;5117929;28;20040;-74
2022/01/16 03:44:26;;;;;;;10.00;4.68;;;;;;;;;;5118221;28;20096;-74
2022/01/16 03:46:52;;;;;;;5.60;3.42;;;;;;;;;;5117866;28;20036;-74
2022/01/16 03:49:20;;;;;;;5.95;3.22;;;;;;;;;;5117760;28;20074;-74
2022/01/16 03:51:48;;;;;;;4.82;3.10;;;;;;;;;;5117813;28;20038;-74
2022/01/16 03:54:15;;;;;;;6.00;3.63;;;;;;;;;;5117806;28;20039;-74
2022/01/16 03:56:42;;;;;;;4.55;2.55;;;;;;;;;;5117911;28;20038;-74
2022/01/16 03:59:08;;;;;;;4.93;2.95;;;;;;;;;;5119579;27;20482;-74
2022/01/16 04:01:34;;;;;;;5.10;3.00;;;;;;;;;;5138117;27;20031;-74
2022/01/16 04:04:00;;;;;;;5.45;3.25;;;;;;;;;;5137944;27;20130;-74
2022/01/16 04:06:27;;;;;;;5.50;3.00;;;;;;;;;;5119622;27;20065;-74
2022/01/16 04:08:54;;;;;;;5.03;3.53;;;;;;;;;;5131229;27;20050;-74
2022/01/16 04:11:21;;;;;;;5.00;3.53;;;;;;;;;;5132188;27;20053;-74
2022/01/16 04:13:53;;;;;;;4.82;3.22;;;;;;;;;;5137927;27;20037;-74
2022/01/16 04:16:20;;;;;;;7.78;3.30;;;;;;;;;;5137906;27;20038;-74
2022/01/16 04:18:51;;;;;;;8.48;4.05;;;;;;;;;;5137696;27;20027;-74
2022/01/16 04:21:20;;;;;;;6.05;3.75;;;;;;;;;;5138372;27;20066;-75
2022/01/16 04:23:47;;;;;;;6.28;2.97;;;;;;;;;;5138039;27;20039;-75
2022/01/16 04:26:14;;;;;;;6.43;3.70;;;;;;;;;;5138101;27;20461;-75
2022/01/16 04:28:41;;;;;;;9.55;3.80;;;;;;;;;;5137690;27;20035;-75
2022/01/16 04:31:07;;;;;;;9.30;4.53;;;;;;;;;;5137547;27;20035;-74
2022/01/16 04:33:33;;;;;;;9.15;5.10;;;;;;;;;;5137759;27;20038;-74
2022/01/16 04:35:59;;;;;;;8.80;4.50;;;;;;;;;;5138146;27;20031;-75
2022/01/16 04:38:26;;;;;;;7.03;4.25;;;;;;;;;;5137551;27;20031;-75
2022/01/16 04:43:50;;;;;;;6.35;4.10;;;;;;;;;;5137100;27;20042;-74
2022/01/16 04:46:16;;;;;;;6.68;3.70;;;;;;;;;;5137986;27;20066;-74
2022/01/16 04:48:43;;;;;;;8.20;3.80;;;;;;;;;;5137106;27;20088;-74
2022/01/16 04:51:09;;;;;;;9.05;4.53;;;;;;;;;;5137830;27;20039;-74
2022/01/16 04:53:35;;;;;;;7.85;4.90;;;;;;;;;;5137214;27;20043;-75
2022/01/16 04:56:01;;;;;;;8.07;4.63;;;;;;;;;;5137805;27;20038;-74
2022/01/16 04:58:28;;;;;;;7.50;4.80;;;;;;;;;;5137069;27;20466;-74
2022/01/16 05:00:54;;;;;;;12.52;6.40;;;;;;;;;;5119410;27;20074;-74
2022/01/16 05:03:21;;;;;;;6.88;4.47;;;;;;;;;;5116255;28;20046;-74
2022/01/16 05:05:47;;;;;;;9.30;5.30;;;;;;;;;;5117044;28;20088;-74
2022/01/16 05:08:13;;;;;;;12.35;6.18;;;;;;;;;;5116443;28;20084;-75
2022/01/16 05:10:39;;;;;;;14.82;7.45;;;;;;;;;;5116719;28;20141;-74
2022/01/16 05:18:31;;;;;;;7.45;5.15;;;;;;;;;;5123027;27;20038;-74
2022/01/16 05:20:58;;;;;;;8.75;5.22;;;;;;;;;;5137564;27;20039;-74
2022/01/16 05:23:24;;;;;;;11.90;5.53;;;;;;;;;;5136859;27;20054;-74
2022/01/16 05:25:50;;;;;;;6.43;4.20;;;;;;;;;;5136565;27;20027;-74
2022/01/16 05:28:16;;;;;;;8.00;4.55;;;;;;;;;;5136803;27;20161;-74
2022/01/16 05:30:42;;;;;;;6.07;3.72;;;;;;;;;;5136579;27;20042;-74
2022/01/16 05:33:09;;;;;;;8.18;4.60;;;;;;;;;;5136240;27;20038;-74
2022/01/16 05:35:35;;;;;;;7.82;4.15;;;;;;;;;;5136400;27;20031;-74
2022/01/16 05:38:02;;;;;;;6.30;3.75;;;;;;;;;;5136446;27;20154;-74
2022/01/16 05:40:28;;;;;;;5.05;3.15;;;;;;;;;;5136763;27;20042;-74
2022/01/16 05:42:55;;;;;;;7.00;3.72;;;;;;;;;;5136088;27;20501;-74
2022/01/16 05:45:22;;;;;;;4.43;2.92;;;;;;;;;;5136429;27;20118;-74
2022/01/16 05:47:48;;;;;;;5.95;3.63;;;;;;;;;;5136547;27;20522;-74
2022/01/16 05:50:14;;;;;;;5.78;3.20;;;;;;;;;;5135995;27;20533;-74
2022/01/16 05:52:41;;;;;;;5.93;3.60;;;;;;;;;;5136382;27;20042;-74
2022/01/16 05:55:07;;;;;;;7.63;3.30;;;;;;;;;;5136365;27;20058;-74
2022/01/16 05:57:33;;;;;;;5.22;3.05;;;;;;;;;;5136330;27;20059;-74
2022/01/16 06:00:00;;;;;;;6.43;3.78;;;;;;;;;;5126256;27;20486;-74
2022/01/16 06:02:27;;;;;;;6.70;4.10;;;;;;;;;;5115621;28;20054;-74
2022/01/16 06:04:53;;;;;;;6.78;4.10;;;;;;;;;;5115283;28;20055;-74
2022/01/16 06:07:20;;;;;;;7.45;3.53;;;;;;;;;;5115338;28;20035;-74
2022/01/16 06:09:46;;;;;;;6.95;3.58;;;;;;;;;;5115839;28;20056;-74
2022/01/16 06:12:12;;;;;;;7.03;3.67;;;;;;;;;;5114829;28;20048;-74
2022/01/16 06:14:38;;;;;;;6.15;4.30;;;;;;;;;;5115827;28;20076;-74
2022/01/16 06:17:05;;;;;;;9.27;4.00;;;;;;;;;;5115177;28;20543;-74
2022/01/16 06:19:32;;;;;;;7.45;4.28;;;;;;;;;;5115080;28;20032;-74
2022/01/16 06:21:58;;;;;;;4.53;3.00;;;;;;;;;;5114536;28;20037;-74
2022/01/16 06:24:24;;;;;;;5.72;3.20;;;;;;;;;;5127393;27;20035;-74
2022/01/16 06:26:51;;;;;;;5.47;3.28;;;;;;;;;;5115513;28;20036;-74
2022/01/16 06:29:17;;;;;;;6.13;3.80;;;;;;;;;;5096981;28;20036;-75
2022/01/16 06:31:43;;;;;;;7.53;4.60;;;;;;;;;;5115043;28;20489;-74
2022/01/16 06:34:09;;;;;;;7.22;4.15;;;;;;;;;;5114828;28;20084;-74
2022/01/16 06:36:36;;;;;;;7.05;3.80;;;;;;;;;;5114702;28;20040;-74
2022/01/16 06:39:07;;;;;;;8.30;4.70;;;;;;;;;;5115224;28;20047;-74
2022/01/16 06:41:34;;;;;;;5.00;3.30;;;;;;;;;;5114533;28;20092;-74
2022/01/16 06:44:00;;;;;;;6.72;3.90;;;;;;;;;;5130137;28;20043;-74
2022/01/16 06:46:27;;;;;;;8.40;4.63;;;;;;;;;;5129002;28;20043;-74
2022/01/16 06:48:53;;;;;;;10.40;5.30;;;;;;;;;;5133982;28;20549;-74
2022/01/16 06:51:20;;;;;;;8.43;4.10;;;;;;;;;;5114855;28;20040;-74
2022/01/16 06:53:47;;;;;;;9.23;4.50;;;;;;;;;;5114698;28;20088;-74
2022/01/16 06:56:13;;;;;;;9.00;4.85;;;;;;;;;;5119379;28;20486;-74
2022/01/16 06:58:39;;;;;;;7.55;4.47;;;;;;;;;;5114708;28;20070;-74
2022/01/16 07:01:05;;;;;;;8.75;4.43;;;;;;;;;;5133706;28;20098;-74
2022/01/16 07:03:32;;;;;;;6.40;4.22;;;;;;;;;;5133238;28;20068;-74
2022/01/16 07:05:59;;;;;;;6.60;4.00;;;;;;;;;;5119193;27;20061;-74
2022/01/16 07:08:26;;;;;;;8.13;4.53;;;;;;;;;;5114654;28;20035;-74
2022/01/16 07:10:56;;;;;;;9.90;6.00;;;;;;;;;;5119574;28;20441;-74
2022/01/16 07:13:23;;;;;;;12.57;7.43;;;;;;;;;;5135327;28;20031;-74
2022/01/16 07:15:49;;;;;;;16.55;8.10;;;;;;;;;;5133035;28;20107;-74
2022/01/16 07:18:16;;;;;;;17.27;8.75;;;;;;;;;;5134822;28;20057;-74
2022/01/16 07:20:46;;;;;;;11.93;7.43;;;;;;;;;;5125621;28;20051;-74
2022/01/16 07:23:12;;;;;;;12.38;7.90;;;;;;;;;;5095650;28;20385;-74
2022/01/16 07:25:39;;;;;;;8.75;5.70;;;;;;;;;;5114537;28;20030;-74
2022/01/16 07:28:05;;;;;;;11.30;5.65;;;;;;;;;;5114445;28;20378;-74
2022/01/16 07:30:31;;;;;;;9.68;5.70;;;;;;;;;;5114940;28;20046;-74
2022/01/16 07:32:58;;;;;;;9.55;6.45;;;;;;;;;;5113907;28;20124;-74
2022/01/16 07:35:24;;;;;;;9.48;5.50;;;;;;;;;;5117125;28;20040;-74
2022/01/16 07:37:52;;;;;;;12.40;6.88;;;;;;;;;;5128513;27;20065;-74
2022/01/16 07:40:20;;;;;;;13.23;7.00;;;;;;;;;;5119488;27;20042;-74
2022/01/16 07:42:46;;;;;;;15.00;7.68;;;;;;;;;;5123348;27;20043;-74
2022/01/16 07:45:13;;;;;;;12.23;7.45;;;;;;;;;;5138811;27;20027;-74
2022/01/16 07:47:39;;;;;;;9.25;5.47;;;;;;;;;;5138169;27;20031;-74
2022/01/16 07:50:06;;;;;;;13.23;6.05;;;;;;;;;;5138928;27;20031;-74
2022/01/16 07:52:32;;;;;;;9.05;6.00;;;;;;;;;;5138502;27;20043;-74
2022/01/16 07:54:58;;;;;;;14.20;6.50;;;;;;;;;;5132393;27;20572;-74
2022/01/16 07:57:24;;;;;;;12.10;6.50;;;;;;;;;;5117461;28;20115;-74
2022/01/16 07:59:51;;;;;;;11.50;7.22;;;;;;;;;;5117463;28;20043;-74
2022/01/16 08:02:17;;;;;;;9.35;5.45;;;;;;;;;;5117274;28;20071;-74
2022/01/16 08:04:43;;;;;;;19.15;10.52;;;;;;;;;;5117460;28;20062;-74
2022/01/16 08:07:10;;;;;;;11.75;7.07;;;;;;;;;;5117751;28;20031;-74
2022/01/16 08:09:40;;;;;;;12.05;7.50;;;;;;;;;;5117361;28;20110;-74
2022/01/16 08:12:07;;;;;;;7.00;4.72;;;;;;;;;;5117822;27;20078;-75
2022/01/16 08:14:34;;;;;;;16.92;9.68;;;;;;;;;;5130030;27;20039;-74
2022/01/16 08:17:00;;;;;;;13.02;8.45;;;;;;;;;;5129276;27;20028;-74
2022/01/16 08:19:27;;;;;;;10.88;6.35;;;;;;;;;;5128017;27;20061;-74
2022/01/16 08:21:53;;;;;;;13.02;8.15;;;;;;;;;;5125186;27;20398;-74
2022/01/16 08:24:19;;;;;;;16.45;9.25;;;;;;;;;;5119905;27;20043;-74
2022/01/16 08:26:46;;;;;;;11.52;6.25;;;;;;;;;;5123659;27;20043;-74
2022/01/16 08:29:12;;;;;;;19.05;9.20;;;;;;;;;;5127108;27;20038;-74
2022/01/16 08:31:38;;;;;;;25.98;14.50;;;;;;;;;;5135323;27;20040;-74
2022/01/16 08:34:04;;;;;;;15.68;7.90;;;;;;;;;;5137045;27;20035;-74
2022/01/16 08:36:31;;;;;;;23.38;12.73;;;;;;;;;;5137487;27;20057;-74
2022/01/16 08:38:57;;;;;;;22.80;10.70;;;;;;;;;;5127754;27;20094;-73
2022/01/16 08:41:24;;;;;;;18.65;8.68;;;;;;;;;;5138810;27;20118;-73
2022/01/16 08:43:50;;;;;;;17.77;9.93;;;;;;;;;;5134333;27;20130;-74
2022/01/16 08:46:16;;;;;;;6.68;4.10;;;;;;;;;;5120362;27;20108;-74
2022/01/16 08:48:42;;;;;;;12.50;7.10;;;;;;;;;;5116563;27;20031;-73
2022/01/16 08:51:09;;;;;;;18.55;7.13;;;;;;;;;;5116633;28;20482;-73
2022/01/16 08:53:35;;;;;;;7.82;3.83;;;;;;;;;;5117285;27;20106;-75
2022/01/16 08:56:01;;;;;;;5.57;3.58;;;;;;;;;;5121792;27;20118;-74
2022/01/16 08:58:27;;;;;;;6.53;3.83;;;;;;;;;;5132072;27;20039;-73
2022/01/16 09:00:54;;;;;;;5.15;3.35;;;;;;;;;;5126305;27;20118;-73
2022/01/16 09:03:20;;;;;;;4.55;2.53;;;;;;;;;;5125323;27;20096;-73
2022/01/16 09:05:47;;;;;;;7.25;3.03;;;;;;;;;;5125166;27;20039;-74
2022/01/16 09:08:14;;;;;;;7.15;3.33;;;;;;;;;;5126098;27;20295;-74
2022/01/16 09:10:41;;;;;;;8.65;4.57;;;;;;;;;;5124800;27;20054;-74
2022/01/16 09:13:11;;;;;;;5.00;2.78;;;;;;;;;;5122295;27;20501;-73
2022/01/16 09:15:38;;;;;;;8.00;3.70;;;;;;;;;;5122924;27;20489;-74
2022/01/16 09:18:05;;;;;;;4.18;2.95;;;;;;;;;;5119744;27;20039;-74
2022/01/16 09:20:31;;;;;;;4.35;2.90;;;;;;;;;;5129154;27;20104;-73
2022/01/16 09:22:57;;;;;;;4.63;3.45;;;;;;;;;;5126389;27;20039;-74
2022/01/16 09:25:23;;;;;;;6.53;3.38;;;;;;;;;;5122949;27;20031;-74
2022/01/16 09:27:50;;;;;;;6.15;3.42;;;;;;;;;;5115979;28;20027;-73
2022/01/16 09:30:17;;;;;;;4.95;3.50;;;;;;;;;;5135265;27;20059;-74
2022/01/16 09:32:43;;;;;;;5.03;3.05;;;;;;;;;;5136251;27;20087;-74
2022/01/16 09:35:10;;;;;;;5.50;3.20;;;;;;;;;;5133681;27;20035;-71
2022/01/16 09:37:36;;;;;;;3.33;2.28;;;;;;;;;;5128685;27;20050;-70
2022/01/16 09:40:04;;;;;;;4.60;2.63;;;;;;;;;;5116143;27;20039;-71
2022/01/16 09:42:30;;;;;;;4.25;2.72;;;;;;;;;;5132084;27;20047;-71
2022/01/16 09:44:56;;;;;;;4.20;2.92;;;;;;;;;;5129731;27;20028;-71
2022/01/16 09:47:23;;;;;;;4.10;2.78;;;;;;;;;;5115622;27;20393;-71
2022/01/16 09:49:49;;;;;;;4.45;2.75;;;;;;;;;;5129008;27;20046;-71
2022/01/16 09:52:15;;;;;;;4.07;2.58;;;;;;;;;;5115792;27;20035;-71
2022/01/16 09:54:42;;;;;;;5.35;2.70;;;;;;;;;;5121250;27;20065;-71
2022/01/16 09:57:10;;;;;;;4.75;3.03;;;;;;;;;;5118310;27;20043;-71
2022/01/16 09:59:36;;;;;;;5.30;3.47;;;;;;;;;;5118410;27;20519;-71
2022/01/16 10:02:03;;;;;;;4.63;3.10;;;;;;;;;;5128334;27;20042;-71
2022/01/16 10:04:32;;;;;;;6.15;3.50;;;;;;;;;;5129995;27;20034;-72
2022/01/16 10:06:59;;;;;;;5.38;3.05;;;;;;;;;;5114962;28;20511;-75
2022/01/16 10:09:26;;;;;;;4.28;2.67;;;;;;;;;;5113791;28;20047;-73
2022/01/16 10:11:59;;;;;;;5.15;3.38;;;;;;;;;;5114308;28;20108;-74
2022/01/16 10:15:26;;;;;;;3.78;2.63;;;;;;;;;;5111175;27;20396;-73
2022/01/16 10:17:54;;;;;;;4.45;3.03;;;;;;;;;;5104090;28;20036;-73
2022/01/16 10:20:20;;;;;;;5.07;3.17;;;;;;;;;;5110662;28;20027;-74
2022/01/16 10:23:01;;;;;;;4.53;3.10;;;;;;;;;;5104837;28;20115;-75
2022/01/16 10:25:41;;;;;;;4.43;2.80;;;;;;;;;;5079820;28;20064;-75
2022/01/16 10:28:24;;;;;;;5.40;3.05;;;;;;;;;;5072969;28;20052;-75
2022/01/16 10:30:51;;;;;;;4.22;2.95;;;;;;;;;;5086343;28;20036;-75
2022/01/16 10:33:19;;;;;;;4.85;2.95;;;;;;;;;;5089038;28;20047;-75
2022/01/16 10:35:50;;;;;;;5.65;3.03;;;;;;;;;;5088316;28;20075;-76
2022/01/16 10:38:21;;;;;;;3.95;2.60;;;;;;;;;;5089377;28;20036;-76
2022/01/16 10:40:51;;;;;;;5.40;3.00;;;;;;;;;;5084013;28;20024;-75
2022/01/16 10:43:19;;;;;;;5.05;2.83;;;;;;;;;;5086265;28;20033;-74
2022/01/16 10:45:47;;;;;;;4.10;3.00;;;;;;;;;;5087006;28;20138;-74
2022/01/16 10:48:14;;;;;;;4.40;2.60;;;;;;;;;;5087354;28;20030;-73
2022/01/16 10:50:47;;;;;;;4.38;2.67;;;;;;;;;;5088240;28;20032;-74
2022/01/16 10:53:17;;;;;;;4.65;2.90;;;;;;;;;;5101130;28;20047;-73
2022/01/16 10:55:51;;;;;;;5.57;3.50;;;;;;;;;;5085203;28;20509;-73
2022/01/16 10:58:19;;;;;;;4.00;2.90;;;;;;;;;;5085302;28;20120;-72
2022/01/16 11:00:53;;;;;;;3.90;2.67;;;;;;;;;;5084909;28;20074;-73
2022/01/16 11:03:20;;;;;;;6.55;2.95;;;;;;;;;;5087142;28;20134;-72
2022/01/16 11:05:46;;;;;;;4.00;2.78;;;;;;;;;;5086958;28;20028;-74
2022/01/16 11:08:17;;;;;;;4.30;2.70;;;;;;;;;;5088605;28;20051;-75
2022/01/16 11:10:44;;;;;;;5.82;2.95;;;;;;;;;;5097235;28;20075;-72
2022/01/16 11:13:14;;;;;;;4.70;2.90;;;;;;;;;;5105776;28;20032;-76
2022/01/16 11:15:45;;;;;;;4.93;3.25;;;;;;;;;;5107522;28;20043;-74
2022/01/16 11:18:12;;;;;;;5.80;3.50;;;;;;;;;;5088037;28;20044;-74
2022/01/16 11:20:39;;;;;;;3.67;2.60;;;;;;;;;;5087959;28;20036;-74
2022/01/16 11:25:38;;;;;;;4.10;3.70;;;;;;;;;;5080696;28;20041;-74
2022/01/16 11:28:05;;;;;;;4.90;3.35;;;;;;;;;;5075326;28;20051;-74
2022/01/16 11:30:32;;;;;;;4.20;2.75;;;;;;;;;;5074708;28;20552;-74
2022/01/16 11:32:59;;;;;;;6.28;4.13;;;;;;;;;;5073072;28;20124;-74
2022/01/16 11:35:26;;;;;;;5.22;3.47;;;;;;;;;;5074402;28;20484;-73
2022/01/16 11:37:53;;;;;;;4.85;3.35;;;;;;;;;;5074882;28;20036;-74
2022/01/16 11:40:37;;;;;;;7.60;4.13;;;;;;;;;;5084244;28;20039;-75
2022/01/16 11:43:13;;;;;;;7.43;4.82;;;;;;;;;;5090714;28;20411;-75
2022/01/16 11:46:03;;;;;;;5.55;3.67;;;;;;;;;;5081860;28;20032;-74
2022/01/16 11:48:42;;;;;;;5.05;3.22;;;;;;;;;;5078337;28;20055;-75
2022/01/16 11:51:27;;;;;;;7.50;3.92;;;;;;;;;;5073266;28;20031;-75
2022/01/16 11:53:53;;;;;;;4.55;2.95;;;;;;;;;;5091341;28;20040;-75
2022/01/16 11:56:40;;;;;;;6.00;3.00;;;;;;;;;;5075690;28;20047;-75
2022/01/16 11:59:13;;;;;;;4.65;2.97;;;;;;;;;;5074980;28;20036;-73
2022/01/16 12:01:50;;;;;;;4.97;3.15;;;;;;;;;;5072682;28;20560;-74
2022/01/16 12:04:31;;;;;;;7.85;4.72;;;;;;;;;;5070776;28;20044;-73
2022/01/16 12:06:58;;;;;;;8.65;5.53;;;;;;;;;;5084347;28;20044;-73
2022/01/16 12:09:53;;;;;;;5.70;2.90;;;;;;;;;;5092878;28;20024;-74
2022/01/16 12:12:19;;;;;;;7.55;3.60;;;;;;;;;;5062179;28;20561;-73
2022/01/16 12:15:00;;;;;;;4.90;3.17;;;;;;;;;;5077381;28;20048;-73
2022/01/16 12:17:29;;;;;;;8.15;3.72;;;;;;;;;;5074408;28;20044;-73
2022/01/16 12:19:57;;;;;;;4.93;3.50;;;;;;;;;;5084164;28;20054;-73
2022/01/16 12:22:42;;;;;;;5.00;3.00;;;;;;;;;;5090745;28;20051;-73
2022/01/16 12:25:27;;;;;;;4.85;2.97;;;;;;;;;;5093686;28;20068;-73
2022/01/16 12:27:56;;;;;;;7.82;4.03;;;;;;;;;;5083450;28;20160;-73
2022/01/16 12:30:23;;;;;;;5.05;2.85;;;;;;;;;;5072793;28;20087;-75
2022/01/16 12:33:08;;;;;;;5.88;3.10;;;;;;;;;;5075938;28;20036;-74
2022/01/16 12:35:55;;;;;;;9.15;3.78;;;;;;;;;;5079893;28;20506;-75
2022/01/16 12:38:28;;;;;;;8.18;4.25;;;;;;;;;;5073090;28;20033;-74
2022/01/16 12:41:03;;;;;;;13.73;9.45;;;;;;;;;;5089921;28;20052;-74
2022/01/16 12:43:40;;;;;;;15.20;10.35;;;;;;;;;;5093360;28;20048;-74
2022/01/16 12:46:07;;;;;;;12.68;9.68;;;;;;;;;;5087596;28;20137;-74
2022/01/16 12:48:38;;;;;;;8.73;5.90;;;;;;;;;;5085742;28;20082;-73
2022/01/16 12:51:05;;;;;;;;;;;;;;;;;;5075600;28;20372;-73
2022/01/16 12:53:37;;;;;;;8.75;4.90;;;;;;;;;;5092779;28;19912;-72
2022/01/16 12:56:16;;;;;;;15.30;9.52;;;;;;;;;;5092435;28;20039;-75
2022/01/16 12:58:42;;;;;;;9.98;6.55;;;;;;;;;;5088906;28;20048;-74
2022/01/16 13:01:09;;;;;;;14.20;7.93;;;;;;;;;;5093222;28;20555;-73
2022/01/16 13:03:35;;;;;;;11.70;7.07;;;;;;;;;;5083738;28;20033;-73
2022/01/16 13:06:17;;;;;;;11.52;6.93;;;;;;;;;;5073316;28;20186;-74
2022/01/16 13:08:57;;;;;;;7.10;4.35;;;;;;;;;;5082901;28;20051;-75
2022/01/16 13:11:24;;;;;;;7.55;3.78;;;;;;;;;;5085555;28;20085;-75
2022/01/16 13:13:50;;;;;;;8.57;4.30;;;;;;;;;;5092509;28;20054;-75
2022/01/16 13:16:18;;;;;;;10.00;4.15;;;;;;;;;;5082821;28;20036;-75
2022/01/16 13:19:02;;;;;;;11.43;6.35;;;;;;;;;;5081070;28;20040;-76
2022/01/16 13:21:34;;;;;;;8.50;4.40;;;;;;;;;;5063779;28;20082;-75
2022/01/16 13:24:02;;;;;;;12.35;6.95;;;;;;;;;;5050813;28;20125;-76
2022/01/16 13:26:29;;;;;;;8.30;4.80;;;;;;;;;;5066283;28;20079;-75
2022/01/16 13:29:03;;;;;;;9.23;5.47;;;;;;;;;;5071816;28;20490;-74
2022/01/16 13:31:29;;;;;;;9.65;5.00;;;;;;;;;;5073362;28;20611;-73
2022/01/16 13:34:11;;;;;;;7.88;4.40;;;;;;;;;;5076327;28;20414;-74
2022/01/16 13:36:38;;;;;;;7.63;4.55;;;;;;;;;;5076493;28;20406;-74
2022/01/16 13:39:05;;;;;;;15.15;8.68;;;;;;;;;;5077190;28;20075;-75
2022/01/16 13:41:42;;;;;;;14.93;9.25;;;;;;;;;;5072802;28;20039;-77
2022/01/16 13:44:27;;;;;;;11.60;5.72;;;;;;;;;;5071174;28;20599;-75
2022/01/16 13:47:02;;;;;;;14.40;6.18;;;;;;;;;;5070802;28;20048;-74
2022/01/16 13:49:28;;;;;;;6.28;4.68;;;;;;;;;;5077533;28;20096;-74
2022/01/16 13:52:01;;;;;;;8.32;4.88;;;;;;;;;;5079745;28;20089;-74
2022/01/16 13:54:32;;;;;;;20.08;13.60;;;;;;;;;;5068212;28;20123;-72
2022/01/16 13:57:02;;;;;;;16.67;8.68;;;;;;;;;;5060307;28;20503;-73
2022/01/16 13:59:29;;;;;;;12.52;7.72;;;;;;;;;;5072983;28;20119;-73
2022/01/16 14:01:58;;;;;;;15.27;9.85;;;;;;;;;;5074209;28;20113;-75
2022/01/16 14:04:26;;;;;;;7.10;4.60;;;;;;;;;;5071660;28;20032;-74
2022/01/16 14:06:55;;;;;;;16.17;8.90;;;;;;;;;;5071361;28;20043;-73
2022/01/16 14:09:24;;;;;;;12.45;7.25;;;;;;;;;;5075620;28;20490;-73
2022/01/16 14:11:51;;;;;;;13.05;8.40;;;;;;;;;;5077158;28;20055;-73
2022/01/16 14:14:19;;;;;;;9.90;6.22;;;;;;;;;;5073351;28;20048;-73
2022/01/16 14:16:49;;;;;;;7.22;5.78;;;;;;;;;;5068020;28;20555;-74
2022/01/16 14:19:17;;;;;;;10.32;5.30;;;;;;;;;;5080615;28;20391;-75
2022/01/16 14:24:31;;;;;;;8.13;5.47;;;;;;;;;;5068994;28;20097;-72
2022/01/16 14:26:59;;;;;;;10.23;6.00;;;;;;;;;;5080240;28;20051;-75
2022/01/16 14:29:26;;;;;;;9.88;7.13;;;;;;;;;;5071481;28;20127;-74
2022/01/16 14:31:53;;;;;;;10.55;6.03;;;;;;;;;;5071221;28;20127;-74
2022/01/16 14:34:20;;;;;;;9.23;5.95;;;;;;;;;;5066546;28;20044;-74
2022/01/16 14:36:46;;;;;;;8.65;4.57;;;;;;;;;;5076221;28;20070;-72
2022/01/16 14:39:13;;;;;;;18.50;10.20;;;;;;;;;;5067853;28;20080;-73
2022/01/16 14:41:44;;;;;;;10.18;7.43;;;;;;;;;;5079760;28;20040;-74
2022/01/16 14:44:11;;;;;;;10.88;7.93;;;;;;;;;;5076893;28;20040;-73
2022/01/16 14:46:37;;;;;;;9.73;5.47;;;;;;;;;;5084608;28;20067;-73
2022/01/16 14:49:03;;;;;;;79.30;51.83;;;;;;;;;;5080142;28;20040;-74
2022/01/16 14:51:30;;;;;;;9.73;6.15;;;;;;;;;;5075576;28;20031;-73
2022/01/16 14:53:56;;;;;;;7.00;4.78;;;;;;;;;;5092626;28;20071;-74
2022/01/16 14:56:23;;;;;;;8.13;5.07;;;;;;;;;;5088179;28;20028;-74
2022/01/16 14:58:49;;;;;;;10.27;6.95;;;;;;;;;;5076913;28;20040;-75
2022/01/16 15:01:15;;;;;;;6.97;4.50;;;;;;;;;;5073377;28;20032;-75
2022/01/16 15:03:42;;;;;;;13.07;7.53;;;;;;;;;;5074762;28;20044;-74
2022/01/16 15:06:08;;;;;;;30.20;19.95;;;;;;;;;;5075726;28;20110;-75
2022/01/16 15:08:36;;;;;;;18.60;10.90;;;;;;;;;;5085126;28;20499;-75
2022/01/16 15:11:02;;;;;;;25.13;16.40;;;;;;;;;;5097626;28;20043;-75
2022/01/16 15:13:28;;;;;;;13.90;8.95;;;;;;;;;;5096842;28;20055;-75
2022/01/16 15:15:55;;;;;;;17.48;11.70;;;;;;;;;;5097319;28;20051;-74
2022/01/16 15:18:21;;;;;;;16.17;10.52;;;;;;;;;;5096928;28;20040;-75
2022/01/16 15:20:53;;;;;;;18.73;10.95;;;;;;;;;;5091133;28;20082;-74
2022/01/16 15:23:20;;;;;;;28.48;15.52;;;;;;;;;;5077784;28;20032;-77
2022/01/16 15:25:47;;;;;;;27.00;14.30;;;;;;;;;;5077453;28;20040;-74
2022/01/16 15:28:14;;;;;;;13.60;7.20;;;;;;;;;;5085561;28;20082;-74
2022/01/16 15:30:40;;;;;;;10.60;6.07;;;;;;;;;;5090646;28;20028;-74
2022/01/16 15:33:07;;;;;;;11.05;6.53;;;;;;;;;;5076611;28;20055;-74